sensor_id;sensor_type;location;lat;lon;timestamp;P1;durP1;ratioP1;P2;durP2;ratioP2
25153;SDS011;47555;51.038;6.280;2023-05-20T00:01:33;3.97;;;2.70;;
25153;SDS011;47555;51.038;6.280;2023-05-20T00:03:59;4.63;;;2.60;;
25153;SDS011;47555;51.038;6.280;2023-05-20T00:06:25;5.18;;;2.90;;
25153;SDS011;47555;51.038;6.280;2023-05-20T00:08:51;4.63;;;2.60;;
25153;SDS011;47555;51.038;6.280;2023-05-20T00:11:17;4.70;;;2.95;;
25153;SDS011;47555;51.038;6.280;2023-05-20T00:13:43;3.47;;;2.35;;
25153;SDS011;47555;51.038;6.280;2023-05-20T00:16:09;5.28;;;2.80;;
25153;SDS011;47555;51.038;6.280;2023-05-20T00:18:35;4.57;;;2.50;;
25153;SDS011;47555;51.038;6.280;2023-05-20T00:21:01;5.15;;;2.80;;
25153;SDS011;47555;51.038;6.280;2023-05-20T00:23:27;4.97;;;3.13;;
25153;SDS011;47555;51.038;6.280;2023-05-20T00:25:53;4.40;;;2.67;;
25153;SDS011;47555;51.038;6.280;2023-05-20T00:28:19;3.58;;;2.55;;
25153;SDS011;47555;51.038;6.280;2023-05-20T00:30:47;4.82;;;2.72;;
25153;SDS011;47555;51.038;6.280;2023-05-20T00:33:13;3.55;;;2.90;;
25153;SDS011;47555;51.038;6.280;2023-05-20T00:35:39;5.22;;;3.15;;
25153;SDS011;47555;51.038;6.280;2023-05-20T00:38:05;3.25;;;2.50;;
25153;SDS011;47555;51.038;6.280;2023-05-20T00:40:31;4.30;;;2.65;;
25153;SDS011;47555;51.038;6.280;2023-05-20T00:42:57;6.38;;;3.00;;
25153;SDS011;47555;51.038;6.280;2023-05-20T00:45:23;4.32;;;2.97;;
25153;SDS011;47555;51.038;6.280;2023-05-20T00:47:49;4.05;;;2.70;;
25153;SDS011;47555;51.038;6.280;2023-05-20T00:50:15;3.95;;;2.70;;
25153;SDS011;47555;51.038;6.280;2023-05-20T00:52:41;4.22;;;3.20;;
25153;SDS011;47555;51.038;6.280;2023-05-20T00:55:09;4.97;;;2.60;;
25153;SDS011;47555;51.038;6.280;2023-05-20T00:57:35;3.90;;;2.95;;
25153;SDS011;47555;51.038;6.280;2023-05-20T01:00:01;5.22;;;3.33;;
25153;SDS011;47555;51.038;6.280;2023-05-20T01:02:28;4.38;;;3.00;;
25153;SDS011;47555;51.038;6.280;2023-05-20T01:04:54;4.18;;;2.90;;
25153;SDS011;47555;51.038;6.280;2023-05-20T01:07:20;3.35;;;2.90;;
25153;SDS011;47555;51.038;6.280;2023-05-20T01:09:46;5.15;;;3.38;;
25153;SDS011;47555;51.038;6.280;2023-05-20T01:12:25;3.70;;;3.08;;
25153;SDS011;47555;51.038;6.280;2023-05-20T01:14:55;6.05;;;3.13;;
25153;SDS011;47555;51.038;6.280;2023-05-20T01:17:23;4.40;;;3.25;;
25153;SDS011;47555;51.038;6.280;2023-05-20T01:19:51;5.53;;;3.22;;
25153;SDS011;47555;51.038;6.280;2023-05-20T01:24:45;6.03;;;3.28;;
25153;SDS011;47555;51.038;6.280;2023-05-20T01:27:17;3.15;;;2.85;;
25153;SDS011;47555;51.038;6.280;2023-05-20T01:29:44;5.10;;;3.90;;
25153;SDS011;47555;51.038;6.280;2023-05-20T01:32:11;4.90;;;3.30;;
25153;SDS011;47555;51.038;6.280;2023-05-20T01:34:40;4.55;;;3.58;;
25153;SDS011;47555;51.038;6.280;2023-05-20T01:37:06;4.78;;;3.63;;
25153;SDS011;47555;51.038;6.280;2023-05-20T01:39:33;8.50;;;4.80;;
25153;SDS011;47555;51.038;6.280;2023-05-20T01:42:05;6.03;;;3.40;;
25153;SDS011;47555;51.038;6.280;2023-05-20T01:44:32;5.22;;;3.20;;
25153;SDS011;47555;51.038;6.280;2023-05-20T01:46:58;5.28;;;3.45;;
25153;SDS011;47555;51.038;6.280;2023-05-20T01:49:25;5.65;;;3.60;;
25153;SDS011;47555;51.038;6.280;2023-05-20T01:51:50;4.85;;;3.53;;
25153;SDS011;47555;51.038;6.280;2023-05-20T01:54:16;6.57;;;3.70;;
25153;SDS011;47555;51.038;6.280;2023-05-20T01:56:42;5.05;;;3.50;;
25153;SDS011;47555;51.038;6.280;2023-05-20T01:59:07;4.40;;;3.92;;
25153;SDS011;47555;51.038;6.280;2023-05-20T02:01:33;4.25;;;3.85;;
25153;SDS011;47555;51.038;6.280;2023-05-20T02:03:59;5.05;;;4.00;;
25153;SDS011;47555;51.038;6.280;2023-05-20T02:06:24;5.03;;;4.00;;
25153;SDS011;47555;51.038;6.280;2023-05-20T02:08:50;4.53;;;3.42;;
25153;SDS011;47555;51.038;6.280;2023-05-20T02:11:15;8.35;;;3.85;;
25153;SDS011;47555;51.038;6.280;2023-05-20T02:13:41;8.55;;;4.18;;
25153;SDS011;47555;51.038;6.280;2023-05-20T02:16:06;4.53;;;3.60;;
25153;SDS011;47555;51.038;6.280;2023-05-20T02:18:32;6.45;;;4.00;;
25153;SDS011;47555;51.038;6.280;2023-05-20T02:21:02;5.32;;;3.95;;
25153;SDS011;47555;51.038;6.280;2023-05-20T02:23:28;6.68;;;3.70;;
25153;SDS011;47555;51.038;6.280;2023-05-20T02:25:56;6.15;;;3.50;;
25153;SDS011;47555;51.038;6.280;2023-05-20T02:28:22;5.97;;;3.95;;
25153;SDS011;47555;51.038;6.280;2023-05-20T02:30:47;8.15;;;4.22;;
25153;SDS011;47555;51.038;6.280;2023-05-20T02:33:15;5.72;;;3.97;;
25153;SDS011;47555;51.038;6.280;2023-05-20T02:35:41;6.30;;;3.83;;
25153;SDS011;47555;51.038;6.280;2023-05-20T02:38:06;4.85;;;3.67;;
25153;SDS011;47555;51.038;6.280;2023-05-20T02:40:32;3.63;;;3.17;;
25153;SDS011;47555;51.038;6.280;2023-05-20T02:42:58;6.43;;;4.00;;
25153;SDS011;47555;51.038;6.280;2023-05-20T02:45:25;6.68;;;4.20;;
25153;SDS011;47555;51.038;6.280;2023-05-20T02:47:51;5.45;;;4.45;;
25153;SDS011;47555;51.038;6.280;2023-05-20T02:50:16;4.88;;;4.05;;
25153;SDS011;47555;51.038;6.280;2023-05-20T02:52:42;5.22;;;4.10;;
25153;SDS011;47555;51.038;6.280;2023-05-20T02:55:09;4.78;;;3.53;;
25153;SDS011;47555;51.038;6.280;2023-05-20T02:57:35;7.15;;;3.80;;
25153;SDS011;47555;51.038;6.280;2023-05-20T03:00:04;4.65;;;3.83;;
25153;SDS011;47555;51.038;6.280;2023-05-20T03:02:32;6.82;;;4.25;;
25153;SDS011;47555;51.038;6.280;2023-05-20T03:04:58;5.15;;;3.83;;
25153;SDS011;47555;51.038;6.280;2023-05-20T03:07:24;6.70;;;3.50;;
25153;SDS011;47555;51.038;6.280;2023-05-20T03:09:50;5.47;;;3.80;;
25153;SDS011;47555;51.038;6.280;2023-05-20T03:12:16;5.72;;;4.10;;
25153;SDS011;47555;51.038;6.280;2023-05-20T03:14:41;5.40;;;3.35;;
25153;SDS011;47555;51.038;6.280;2023-05-20T03:17:07;7.00;;;3.67;;
25153;SDS011;47555;51.038;6.280;2023-05-20T03:19:36;6.15;;;3.95;;
25153;SDS011;47555;51.038;6.280;2023-05-20T03:22:02;6.78;;;4.13;;
25153;SDS011;47555;51.038;6.280;2023-05-20T03:24:28;5.93;;;3.72;;
25153;SDS011;47555;51.038;6.280;2023-05-20T03:26:54;7.47;;;3.92;;
25153;SDS011;47555;51.038;6.280;2023-05-20T03:29:19;5.65;;;3.95;;
25153;SDS011;47555;51.038;6.280;2023-05-20T03:31:46;5.18;;;4.00;;
25153;SDS011;47555;51.038;6.280;2023-05-20T03:34:12;4.13;;;3.58;;
25153;SDS011;47555;51.038;6.280;2023-05-20T03:36:37;6.38;;;4.18;;
25153;SDS011;47555;51.038;6.280;2023-05-20T03:39:03;4.80;;;3.30;;
25153;SDS011;47555;51.038;6.280;2023-05-20T03:41:28;5.10;;;3.85;;
25153;SDS011;47555;51.038;6.280;2023-05-20T03:43:54;6.10;;;4.50;;
25153;SDS011;47555;51.038;6.280;2023-05-20T03:46:19;5.15;;;4.15;;
25153;SDS011;47555;51.038;6.280;2023-05-20T03:48:45;5.82;;;4.55;;
25153;SDS011;47555;51.038;6.280;2023-05-20T03:51:10;5.95;;;4.28;;
25153;SDS011;47555;51.038;6.280;2023-05-20T03:53:36;5.53;;;4.20;;
25153;SDS011;47555;51.038;6.280;2023-05-20T03:56:04;5.97;;;4.15;;
25153;SDS011;47555;51.038;6.280;2023-05-20T03:58:30;6.60;;;4.78;;
25153;SDS011;47555;51.038;6.280;2023-05-20T04:00:56;5.40;;;4.10;;
25153;SDS011;47555;51.038;6.280;2023-05-20T04:03:22;6.43;;;4.50;;
25153;SDS011;47555;51.038;6.280;2023-05-20T04:05:48;8.07;;;4.30;;
25153;SDS011;47555;51.038;6.280;2023-05-20T04:08:13;7.97;;;4.70;;
25153;SDS011;47555;51.038;6.280;2023-05-20T04:10:40;6.50;;;4.30;;
25153;SDS011;47555;51.038;6.280;2023-05-20T04:13:06;5.35;;;4.03;;
25153;SDS011;47555;51.038;6.280;2023-05-20T04:15:34;6.22;;;4.57;;
25153;SDS011;47555;51.038;6.280;2023-05-20T04:18:00;9.63;;;4.18;;
25153;SDS011;47555;51.038;6.280;2023-05-20T04:20:26;7.43;;;3.95;;
25153;SDS011;47555;51.038;6.280;2023-05-20T04:22:51;6.35;;;4.10;;
25153;SDS011;47555;51.038;6.280;2023-05-20T04:25:18;6.65;;;4.05;;
25153;SDS011;47555;51.038;6.280;2023-05-20T04:27:43;6.55;;;4.45;;
25153;SDS011;47555;51.038;6.280;2023-05-20T04:30:10;15.32;;;4.28;;
25153;SDS011;47555;51.038;6.280;2023-05-20T04:32:35;6.25;;;4.22;;
25153;SDS011;47555;51.038;6.280;2023-05-20T04:35:02;10.43;;;4.88;;
25153;SDS011;47555;51.038;6.280;2023-05-20T04:37:32;5.43;;;4.25;;
25153;SDS011;47555;51.038;6.280;2023-05-20T04:39:58;9.23;;;4.60;;
25153;SDS011;47555;51.038;6.280;2023-05-20T04:42:30;6.25;;;4.47;;
25153;SDS011;47555;51.038;6.280;2023-05-20T04:44:56;5.65;;;3.90;;
25153;SDS011;47555;51.038;6.280;2023-05-20T04:47:23;7.60;;;4.43;;
25153;SDS011;47555;51.038;6.280;2023-05-20T04:49:48;6.82;;;4.25;;
25153;SDS011;47555;51.038;6.280;2023-05-20T04:52:14;6.25;;;3.88;;
25153;SDS011;47555;51.038;6.280;2023-05-20T04:54:40;5.47;;;3.55;;
25153;SDS011;47555;51.038;6.280;2023-05-20T04:57:05;5.50;;;4.13;;
25153;SDS011;47555;51.038;6.280;2023-05-20T04:59:31;8.30;;;4.28;;
25153;SDS011;47555;51.038;6.280;2023-05-20T05:01:56;3.97;;;3.42;;
25153;SDS011;47555;51.038;6.280;2023-05-20T05:04:22;4.88;;;3.58;;
25153;SDS011;47555;51.038;6.280;2023-05-20T05:06:48;6.15;;;4.05;;
25153;SDS011;47555;51.038;6.280;2023-05-20T05:09:14;7.63;;;4.05;;
25153;SDS011;47555;51.038;6.280;2023-05-20T05:11:39;7.88;;;4.05;;
25153;SDS011;47555;51.038;6.280;2023-05-20T05:14:05;5.55;;;3.60;;
25153;SDS011;47555;51.038;6.280;2023-05-20T05:16:30;4.97;;;3.85;;
25153;SDS011;47555;51.038;6.280;2023-05-20T05:18:56;5.68;;;3.80;;
25153;SDS011;47555;51.038;6.280;2023-05-20T05:21:21;5.65;;;4.28;;
25153;SDS011;47555;51.038;6.280;2023-05-20T05:23:47;4.70;;;3.72;;
25153;SDS011;47555;51.038;6.280;2023-05-20T05:26:12;6.57;;;4.22;;
25153;SDS011;47555;51.038;6.280;2023-05-20T05:28:39;7.60;;;4.40;;
25153;SDS011;47555;51.038;6.280;2023-05-20T05:31:05;4.93;;;4.13;;
25153;SDS011;47555;51.038;6.280;2023-05-20T05:33:31;6.28;;;3.90;;
25153;SDS011;47555;51.038;6.280;2023-05-20T05:35:56;6.05;;;4.60;;
25153;SDS011;47555;51.038;6.280;2023-05-20T05:38:23;10.05;;;4.57;;
25153;SDS011;47555;51.038;6.280;2023-05-20T05:40:49;8.40;;;4.35;;
25153;SDS011;47555;51.038;6.280;2023-05-20T05:43:14;6.05;;;4.10;;
25153;SDS011;47555;51.038;6.280;2023-05-20T05:45:40;7.32;;;4.47;;
25153;SDS011;47555;51.038;6.280;2023-05-20T05:48:07;5.32;;;4.68;;
25153;SDS011;47555;51.038;6.280;2023-05-20T05:50:32;5.03;;;4.10;;
25153;SDS011;47555;51.038;6.280;2023-05-20T05:52:58;7.25;;;4.70;;
25153;SDS011;47555;51.038;6.280;2023-05-20T05:55:23;7.85;;;3.97;;
25153;SDS011;47555;51.038;6.280;2023-05-20T05:57:49;6.60;;;4.65;;
25153;SDS011;47555;51.038;6.280;2023-05-20T06:00:15;5.35;;;3.60;;
25153;SDS011;47555;51.038;6.280;2023-05-20T06:02:41;7.80;;;4.22;;
25153;SDS011;47555;51.038;6.280;2023-05-20T06:05:07;7.18;;;4.13;;
25153;SDS011;47555;51.038;6.280;2023-05-20T06:07:33;6.03;;;4.03;;
25153;SDS011;47555;51.038;6.280;2023-05-20T06:09:58;4.55;;;3.33;;
25153;SDS011;47555;51.038;6.280;2023-05-20T06:12:24;5.85;;;3.70;;
25153;SDS011;47555;51.038;6.280;2023-05-20T06:14:49;5.35;;;4.22;;
25153;SDS011;47555;51.038;6.280;2023-05-20T06:17:15;6.95;;;4.03;;
25153;SDS011;47555;51.038;6.280;2023-05-20T06:19:40;8.07;;;4.15;;
25153;SDS011;47555;51.038;6.280;2023-05-20T06:22:06;4.47;;;3.53;;
25153;SDS011;47555;51.038;6.280;2023-05-20T06:24:32;6.03;;;3.53;;
25153;SDS011;47555;51.038;6.280;2023-05-20T06:26:58;3.83;;;3.17;;
25153;SDS011;47555;51.038;6.280;2023-05-20T06:29:23;4.40;;;3.50;;
25153;SDS011;47555;51.038;6.280;2023-05-20T06:31:49;4.05;;;3.40;;
25153;SDS011;47555;51.038;6.280;2023-05-20T06:34:15;3.97;;;3.13;;
25153;SDS011;47555;51.038;6.280;2023-05-20T06:36:40;5.25;;;3.30;;
25153;SDS011;47555;51.038;6.280;2023-05-20T06:39:06;8.02;;;3.50;;
25153;SDS011;47555;51.038;6.280;2023-05-20T06:41:36;4.55;;;3.78;;
25153;SDS011;47555;51.038;6.280;2023-05-20T06:44:05;4.78;;;3.80;;
25153;SDS011;47555;51.038;6.280;2023-05-20T06:46:31;4.20;;;3.80;;
25153;SDS011;47555;51.038;6.280;2023-05-20T06:48:57;5.32;;;3.83;;
25153;SDS011;47555;51.038;6.280;2023-05-20T06:51:22;5.10;;;3.33;;
25153;SDS011;47555;51.038;6.280;2023-05-20T06:53:48;4.43;;;3.45;;
25153;SDS011;47555;51.038;6.280;2023-05-20T06:56:14;4.07;;;3.03;;
25153;SDS011;47555;51.038;6.280;2023-05-20T06:58:39;5.45;;;3.53;;
25153;SDS011;47555;51.038;6.280;2023-05-20T07:01:05;4.00;;;3.17;;
25153;SDS011;47555;51.038;6.280;2023-05-20T07:03:30;6.25;;;3.63;;
25153;SDS011;47555;51.038;6.280;2023-05-20T07:05:56;5.22;;;3.40;;
25153;SDS011;47555;51.038;6.280;2023-05-20T07:08:21;4.78;;;3.42;;
25153;SDS011;47555;51.038;6.280;2023-05-20T07:10:47;3.35;;;3.05;;
25153;SDS011;47555;51.038;6.280;2023-05-20T07:13:12;6.18;;;3.35;;
25153;SDS011;47555;51.038;6.280;2023-05-20T07:15:38;5.40;;;3.60;;
25153;SDS011;47555;51.038;6.280;2023-05-20T07:18:04;4.88;;;3.33;;
25153;SDS011;47555;51.038;6.280;2023-05-20T07:20:29;5.18;;;3.45;;
25153;SDS011;47555;51.038;6.280;2023-05-20T07:22:55;4.22;;;3.20;;
25153;SDS011;47555;51.038;6.280;2023-05-20T07:25:20;6.88;;;3.42;;
25153;SDS011;47555;51.038;6.280;2023-05-20T07:27:46;6.10;;;3.35;;
25153;SDS011;47555;51.038;6.280;2023-05-20T07:30:12;5.38;;;3.25;;
25153;SDS011;47555;51.038;6.280;2023-05-20T07:32:37;4.13;;;3.05;;
25153;SDS011;47555;51.038;6.280;2023-05-20T07:35:03;5.38;;;3.20;;
25153;SDS011;47555;51.038;6.280;2023-05-20T07:37:29;4.20;;;2.90;;
25153;SDS011;47555;51.038;6.280;2023-05-20T07:39:55;3.58;;;2.75;;
25153;SDS011;47555;51.038;6.280;2023-05-20T07:42:20;3.92;;;3.13;;
25153;SDS011;47555;51.038;6.280;2023-05-20T07:44:46;4.75;;;3.05;;
25153;SDS011;47555;51.038;6.280;2023-05-20T07:47:12;4.18;;;2.83;;
25153;SDS011;47555;51.038;6.280;2023-05-20T07:49:38;4.45;;;3.35;;
25153;SDS011;47555;51.038;6.280;2023-05-20T07:52:03;6.65;;;3.75;;
25153;SDS011;47555;51.038;6.280;2023-05-20T07:54:29;5.57;;;3.63;;
25153;SDS011;47555;51.038;6.280;2023-05-20T07:56:54;3.83;;;2.95;;
25153;SDS011;47555;51.038;6.280;2023-05-20T07:59:20;6.18;;;3.58;;
25153;SDS011;47555;51.038;6.280;2023-05-20T08:01:46;4.38;;;3.40;;
25153;SDS011;47555;51.038;6.280;2023-05-20T08:04:11;5.07;;;3.35;;
25153;SDS011;47555;51.038;6.280;2023-05-20T08:06:36;5.85;;;3.50;;
25153;SDS011;47555;51.038;6.280;2023-05-20T08:09:03;6.70;;;3.50;;
25153;SDS011;47555;51.038;6.280;2023-05-20T08:11:29;4.75;;;3.20;;
25153;SDS011;47555;51.038;6.280;2023-05-20T08:13:54;4.07;;;3.22;;
25153;SDS011;47555;51.038;6.280;2023-05-20T08:16:20;3.83;;;3.28;;
25153;SDS011;47555;51.038;6.280;2023-05-20T08:18:46;5.63;;;3.33;;
25153;SDS011;47555;51.038;6.280;2023-05-20T08:21:11;5.45;;;3.20;;
25153;SDS011;47555;51.038;6.280;2023-05-20T08:23:38;4.70;;;3.25;;
25153;SDS011;47555;51.038;6.280;2023-05-20T08:26:03;6.45;;;3.42;;
25153;SDS011;47555;51.038;6.280;2023-05-20T08:28:29;3.42;;;3.10;;
25153;SDS011;47555;51.038;6.280;2023-05-20T08:30:55;5.53;;;3.38;;
25153;SDS011;47555;51.038;6.280;2023-05-20T08:33:22;4.03;;;3.30;;
25153;SDS011;47555;51.038;6.280;2023-05-20T08:35:48;5.40;;;3.35;;
25153;SDS011;47555;51.038;6.280;2023-05-20T08:38:13;5.97;;;3.63;;
25153;SDS011;47555;51.038;6.280;2023-05-20T08:40:39;3.78;;;3.47;;
25153;SDS011;47555;51.038;6.280;2023-05-20T08:43:05;4.18;;;3.20;;
25153;SDS011;47555;51.038;6.280;2023-05-20T08:45:31;6.50;;;3.38;;
25153;SDS011;47555;51.038;6.280;2023-05-20T08:47:59;4.43;;;3.38;;
25153;SDS011;47555;51.038;6.280;2023-05-20T08:50:25;5.00;;;3.30;;
25153;SDS011;47555;51.038;6.280;2023-05-20T08:52:51;5.13;;;3.45;;
25153;SDS011;47555;51.038;6.280;2023-05-20T08:55:19;5.25;;;3.20;;
25153;SDS011;47555;51.038;6.280;2023-05-20T08:57:54;4.35;;;3.40;;
25153;SDS011;47555;51.038;6.280;2023-05-20T09:00:21;4.97;;;4.47;;
25153;SDS011;47555;51.038;6.280;2023-05-20T09:02:52;4.28;;;3.30;;
25153;SDS011;47555;51.038;6.280;2023-05-20T09:05:19;5.18;;;3.50;;
25153;SDS011;47555;51.038;6.280;2023-05-20T09:07:45;5.80;;;3.80;;
25153;SDS011;47555;51.038;6.280;2023-05-20T09:10:11;5.28;;;3.80;;
25153;SDS011;47555;51.038;6.280;2023-05-20T09:12:37;5.35;;;3.92;;
25153;SDS011;47555;51.038;6.280;2023-05-20T09:15:03;4.70;;;4.15;;
25153;SDS011;47555;51.038;6.280;2023-05-20T09:17:29;6.30;;;3.80;;
25153;SDS011;47555;51.038;6.280;2023-05-20T09:19:55;7.07;;;3.65;;
25153;SDS011;47555;51.038;6.280;2023-05-20T09:22:21;8.02;;;4.20;;
25153;SDS011;47555;51.038;6.280;2023-05-20T09:24:48;5.40;;;3.70;;
25153;SDS011;47555;51.038;6.280;2023-05-20T09:27:15;7.45;;;4.00;;
25153;SDS011;47555;51.038;6.280;2023-05-20T09:29:41;4.93;;;3.40;;
25153;SDS011;47555;51.038;6.280;2023-05-20T09:32:08;6.82;;;3.78;;
25153;SDS011;47555;51.038;6.280;2023-05-20T09:34:35;5.38;;;3.60;;
25153;SDS011;47555;51.038;6.280;2023-05-20T09:37:01;6.10;;;4.13;;
25153;SDS011;47555;51.038;6.280;2023-05-20T09:39:28;5.47;;;3.38;;
25153;SDS011;47555;51.038;6.280;2023-05-20T09:41:56;4.45;;;3.67;;
25153;SDS011;47555;51.038;6.280;2023-05-20T09:44:24;4.20;;;3.80;;
25153;SDS011;47555;51.038;6.280;2023-05-20T09:46:50;5.85;;;4.28;;
25153;SDS011;47555;51.038;6.280;2023-05-20T09:49:17;7.55;;;4.25;;
25153;SDS011;47555;51.038;6.280;2023-05-20T09:51:43;6.47;;;4.30;;
25153;SDS011;47555;51.038;6.280;2023-05-20T09:54:11;5.95;;;4.65;;
25153;SDS011;47555;51.038;6.280;2023-05-20T09:56:37;5.00;;;3.97;;
25153;SDS011;47555;51.038;6.280;2023-05-20T09:59:06;5.30;;;4.15;;
25153;SDS011;47555;51.038;6.280;2023-05-20T10:01:32;5.80;;;3.70;;
25153;SDS011;47555;51.038;6.280;2023-05-20T10:03:58;7.10;;;4.07;;
25153;SDS011;47555;51.038;6.280;2023-05-20T10:09:04;5.38;;;4.30;;
25153;SDS011;47555;51.038;6.280;2023-05-20T10:14:25;8.43;;;5.00;;
25153;SDS011;47555;51.038;6.280;2023-05-20T10:16:59;6.45;;;4.43;;
25153;SDS011;47555;51.038;6.280;2023-05-20T10:19:32;6.45;;;4.55;;
25153;SDS011;47555;51.038;6.280;2023-05-20T10:22:03;4.70;;;4.20;;
25153;SDS011;47555;51.038;6.280;2023-05-20T10:24:29;10.05;;;4.97;;
25153;SDS011;47555;51.038;6.280;2023-05-20T10:26:56;4.60;;;4.13;;
25153;SDS011;47555;51.038;6.280;2023-05-20T10:29:22;6.95;;;4.88;;
25153;SDS011;47555;51.038;6.280;2023-05-20T10:31:49;7.03;;;4.88;;
25153;SDS011;47555;51.038;6.280;2023-05-20T10:34:19;5.25;;;3.97;;
25153;SDS011;47555;51.038;6.280;2023-05-20T10:36:46;7.40;;;4.35;;
25153;SDS011;47555;51.038;6.280;2023-05-20T10:39:25;6.53;;;4.88;;
25153;SDS011;47555;51.038;6.280;2023-05-20T10:41:52;6.70;;;4.60;;
25153;SDS011;47555;51.038;6.280;2023-05-20T10:44:18;6.13;;;4.70;;
25153;SDS011;47555;51.038;6.280;2023-05-20T10:46:44;5.65;;;4.25;;
25153;SDS011;47555;51.038;6.280;2023-05-20T10:49:17;5.13;;;4.60;;
25153;SDS011;47555;51.038;6.280;2023-05-20T10:51:44;6.97;;;5.20;;
25153;SDS011;47555;51.038;6.280;2023-05-20T10:54:11;6.72;;;4.75;;
25153;SDS011;47555;51.038;6.280;2023-05-20T10:56:37;5.35;;;4.50;;
25153;SDS011;47555;51.038;6.280;2023-05-20T10:59:03;7.10;;;4.85;;
25153;SDS011;47555;51.038;6.280;2023-05-20T11:01:29;5.70;;;4.30;;
25153;SDS011;47555;51.038;6.280;2023-05-20T11:03:55;6.22;;;4.70;;
25153;SDS011;47555;51.038;6.280;2023-05-20T11:06:25;5.72;;;4.28;;
25153;SDS011;47555;51.038;6.280;2023-05-20T11:08:52;5.40;;;4.88;;
25153;SDS011;47555;51.038;6.280;2023-05-20T11:11:18;6.80;;;4.93;;
25153;SDS011;47555;51.038;6.280;2023-05-20T11:13:44;5.43;;;4.55;;
25153;SDS011;47555;51.038;6.280;2023-05-20T11:16:10;7.65;;;5.05;;
25153;SDS011;47555;51.038;6.280;2023-05-20T11:18:36;6.30;;;4.90;;
25153;SDS011;47555;51.038;6.280;2023-05-20T11:21:02;6.97;;;4.55;;
25153;SDS011;47555;51.038;6.280;2023-05-20T11:23:28;6.22;;;4.40;;
25153;SDS011;47555;51.038;6.280;2023-05-20T11:25:55;6.47;;;4.43;;
25153;SDS011;47555;51.038;6.280;2023-05-20T11:28:21;7.72;;;4.47;;
25153;SDS011;47555;51.038;6.280;2023-05-20T11:30:48;7.63;;;4.70;;
25153;SDS011;47555;51.038;6.280;2023-05-20T11:33:15;5.85;;;4.50;;
25153;SDS011;47555;51.038;6.280;2023-05-20T11:35:44;7.60;;;4.82;;
25153;SDS011;47555;51.038;6.280;2023-05-20T11:38:11;7.90;;;5.13;;
25153;SDS011;47555;51.038;6.280;2023-05-20T11:40:37;5.53;;;5.00;;
25153;SDS011;47555;51.038;6.280;2023-05-20T11:43:09;6.15;;;4.82;;
25153;SDS011;47555;51.038;6.280;2023-05-20T11:45:39;6.38;;;4.65;;
25153;SDS011;47555;51.038;6.280;2023-05-20T11:48:05;5.60;;;4.45;;
25153;SDS011;47555;51.038;6.280;2023-05-20T11:50:36;6.65;;;5.30;;
25153;SDS011;47555;51.038;6.280;2023-05-20T11:53:04;6.45;;;5.05;;
25153;SDS011;47555;51.038;6.280;2023-05-20T11:55:31;5.82;;;4.72;;
25153;SDS011;47555;51.038;6.280;2023-05-20T11:57:57;8.35;;;5.28;;
25153;SDS011;47555;51.038;6.280;2023-05-20T12:00:23;7.75;;;5.32;;
25153;SDS011;47555;51.038;6.280;2023-05-20T12:02:49;7.03;;;5.63;;
25153;SDS011;47555;51.038;6.280;2023-05-20T12:05:15;6.35;;;5.43;;
25153;SDS011;47555;51.038;6.280;2023-05-20T12:07:42;6.15;;;4.97;;
25153;SDS011;47555;51.038;6.280;2023-05-20T12:10:08;7.00;;;6.03;;
25153;SDS011;47555;51.038;6.280;2023-05-20T12:12:34;10.13;;;5.75;;
25153;SDS011;47555;51.038;6.280;2023-05-20T12:15:01;8.00;;;5.65;;
25153;SDS011;47555;51.038;6.280;2023-05-20T12:17:27;7.75;;;5.43;;
25153;SDS011;47555;51.038;6.280;2023-05-20T12:19:53;6.57;;;5.55;;
25153;SDS011;47555;51.038;6.280;2023-05-20T12:22:19;10.07;;;5.68;;
25153;SDS011;47555;51.038;6.280;2023-05-20T12:24:45;8.88;;;5.97;;
25153;SDS011;47555;51.038;6.280;2023-05-20T12:27:11;9.98;;;6.07;;
25153;SDS011;47555;51.038;6.280;2023-05-20T12:29:37;7.68;;;5.70;;
25153;SDS011;47555;51.038;6.280;2023-05-20T12:32:03;8.93;;;6.20;;
25153;SDS011;47555;51.038;6.280;2023-05-20T12:34:29;7.40;;;5.90;;
25153;SDS011;47555;51.038;6.280;2023-05-20T12:36:57;6.90;;;5.30;;
25153;SDS011;47555;51.038;6.280;2023-05-20T12:39:22;8.52;;;5.68;;
25153;SDS011;47555;51.038;6.280;2023-05-20T12:41:48;8.50;;;5.43;;
25153;SDS011;47555;51.038;6.280;2023-05-20T12:44:14;7.43;;;5.30;;
25153;SDS011;47555;51.038;6.280;2023-05-20T12:46:40;6.53;;;5.43;;
25153;SDS011;47555;51.038;6.280;2023-05-20T12:49:06;7.95;;;5.32;;
25153;SDS011;47555;51.038;6.280;2023-05-20T12:51:32;8.93;;;5.53;;
25153;SDS011;47555;51.038;6.280;2023-05-20T12:53:58;8.85;;;5.80;;
25153;SDS011;47555;51.038;6.280;2023-05-20T12:56:24;8.32;;;5.80;;
25153;SDS011;47555;51.038;6.280;2023-05-20T12:58:51;8.25;;;5.72;;
25153;SDS011;47555;51.038;6.280;2023-05-20T13:01:17;9.05;;;5.93;;
25153;SDS011;47555;51.038;6.280;2023-05-20T13:03:43;7.43;;;5.53;;
25153;SDS011;47555;51.038;6.280;2023-05-20T13:06:09;6.75;;;5.88;;
25153;SDS011;47555;51.038;6.280;2023-05-20T13:08:35;9.23;;;6.03;;
25153;SDS011;47555;51.038;6.280;2023-05-20T13:11:01;7.68;;;6.00;;
25153;SDS011;47555;51.038;6.280;2023-05-20T13:13:27;8.98;;;5.57;;
25153;SDS011;47555;51.038;6.280;2023-05-20T13:15:53;7.45;;;5.22;;
25153;SDS011;47555;51.038;6.280;2023-05-20T13:18:19;6.97;;;5.15;;
25153;SDS011;47555;51.038;6.280;2023-05-20T13:20:45;8.85;;;5.47;;
25153;SDS011;47555;51.038;6.280;2023-05-20T13:23:11;8.55;;;5.43;;
25153;SDS011;47555;51.038;6.280;2023-05-20T13:25:37;8.63;;;5.55;;
25153;SDS011;47555;51.038;6.280;2023-05-20T13:28:03;9.48;;;5.38;;
25153;SDS011;47555;51.038;6.280;2023-05-20T13:30:30;9.52;;;5.80;;
25153;SDS011;47555;51.038;6.280;2023-05-20T13:32:56;7.32;;;5.32;;
25153;SDS011;47555;51.038;6.280;2023-05-20T13:35:22;6.43;;;5.40;;
25153;SDS011;47555;51.038;6.280;2023-05-20T13:37:48;7.20;;;5.30;;
25153;SDS011;47555;51.038;6.280;2023-05-20T13:40:14;7.13;;;5.53;;
25153;SDS011;47555;51.038;6.280;2023-05-20T13:42:43;8.20;;;6.07;;
25153;SDS011;47555;51.038;6.280;2023-05-20T13:45:09;9.30;;;6.18;;
25153;SDS011;47555;51.038;6.280;2023-05-20T13:47:35;7.05;;;5.10;;
25153;SDS011;47555;51.038;6.280;2023-05-20T13:50:01;7.55;;;5.50;;
25153;SDS011;47555;51.038;6.280;2023-05-20T13:52:27;6.93;;;5.82;;
25153;SDS011;47555;51.038;6.280;2023-05-20T13:54:53;9.00;;;6.18;;
25153;SDS011;47555;51.038;6.280;2023-05-20T13:57:20;9.77;;;5.72;;
25153;SDS011;47555;51.038;6.280;2023-05-20T13:59:45;7.18;;;5.35;;
25153;SDS011;47555;51.038;6.280;2023-05-20T14:02:11;8.15;;;5.22;;
25153;SDS011;47555;51.038;6.280;2023-05-20T14:04:37;7.13;;;5.35;;
25153;SDS011;47555;51.038;6.280;2023-05-20T14:07:04;7.43;;;5.57;;
25153;SDS011;47555;51.038;6.280;2023-05-20T14:09:30;7.05;;;5.35;;
25153;SDS011;47555;51.038;6.280;2023-05-20T14:11:56;7.47;;;5.80;;
25153;SDS011;47555;51.038;6.280;2023-05-20T14:14:22;8.02;;;6.20;;
25153;SDS011;47555;51.038;6.280;2023-05-20T14:16:48;7.28;;;5.70;;
25153;SDS011;47555;51.038;6.280;2023-05-20T14:19:14;6.13;;;5.45;;
25153;SDS011;47555;51.038;6.280;2023-05-20T14:21:40;8.77;;;5.45;;
25153;SDS011;47555;51.038;6.280;2023-05-20T14:24:06;7.60;;;5.00;;
25153;SDS011;47555;51.038;6.280;2023-05-20T14:26:32;7.25;;;5.35;;
25153;SDS011;47555;51.038;6.280;2023-05-20T14:28:59;6.30;;;5.10;;
25153;SDS011;47555;51.038;6.280;2023-05-20T14:31:25;6.97;;;5.38;;
25153;SDS011;47555;51.038;6.280;2023-05-20T14:33:51;8.18;;;5.20;;
25153;SDS011;47555;51.038;6.280;2023-05-20T14:36:17;6.95;;;4.97;;
25153;SDS011;47555;51.038;6.280;2023-05-20T14:38:43;6.47;;;5.35;;
25153;SDS011;47555;51.038;6.280;2023-05-20T14:41:09;7.75;;;5.15;;
25153;SDS011;47555;51.038;6.280;2023-05-20T14:43:36;7.50;;;4.93;;
25153;SDS011;47555;51.038;6.280;2023-05-20T14:46:02;6.82;;;5.30;;
25153;SDS011;47555;51.038;6.280;2023-05-20T14:48:28;6.97;;;4.93;;
25153;SDS011;47555;51.038;6.280;2023-05-20T14:50:54;6.13;;;5.00;;